createdAt,value
2022-12-23T11:26:11.514Z,5.01
2022-12-23T11:27:11.489Z,4.14
2022-12-23T11:28:11.477Z,4.69
2022-12-23T11:29:11.464Z,4.26
2022-12-23T11:30:11.450Z,4.10
2022-12-23T11:31:11.470Z,3.54
2022-12-23T11:32:11.523Z,4.06
2022-12-23T11:33:11.422Z,3.83
2022-12-23T11:34:11.414Z,3.89
2022-12-23T11:35:11.416Z,3.58
2022-12-23T11:36:11.388Z,4.24
2022-12-23T11:37:11.394Z,4.24
2022-12-23T11:38:11.398Z,4.79
2022-12-23T11:39:11.379Z,3.73
2022-12-23T11:40:11.389Z,3.85
2022-12-23T11:41:11.353Z,4.11
2022-12-23T11:42:11.376Z,4.13
2022-12-23T11:43:11.336Z,3.89
2022-12-23T11:44:11.325Z,3.61
2022-12-23T11:45:11.339Z,3.69
2022-12-23T11:46:11.460Z,3.97
2022-12-23T11:47:11.291Z,3.93
2022-12-23T11:48:11.314Z,4.02
2022-12-23T11:49:11.290Z,3.78
2022-12-23T11:50:11.265Z,3.52
2022-12-23T11:51:11.264Z,4.02
2022-12-23T11:52:11.256Z,3.87
2022-12-23T11:53:11.251Z,3.97
2022-12-23T11:54:11.251Z,4.03
2022-12-23T11:55:11.274Z,3.35
2022-12-23T11:56:11.217Z,4.06
2022-12-23T11:57:11.291Z,3.99
2022-12-23T11:58:11.208Z,3.95
2022-12-23T11:59:11.210Z,3.83
2022-12-23T12:00:11.196Z,3.05
2022-12-23T12:01:11.170Z,3.64
2022-12-23T12:02:11.204Z,3.61
2022-12-23T12:03:11.171Z,3.89
2022-12-23T12:04:11.147Z,3.29
2022-12-23T12:05:11.136Z,3.28
2022-12-23T12:06:11.128Z,3.14
2022-12-23T12:07:11.118Z,3.33
2022-12-23T12:08:11.130Z,3.35
2022-12-23T12:09:11.103Z,2.87
2022-12-23T12:10:11.143Z,3.54
2022-12-23T12:11:11.114Z,2.77
2022-12-23T12:12:11.071Z,3.69
2022-12-23T12:13:11.086Z,3.13
2022-12-23T12:16:26.014Z,3.79
2022-12-23T12:17:25.991Z,3.46
2022-12-23T12:18:25.954Z,3.58
2022-12-23T12:19:25.966Z,4.07
2022-12-23T12:20:25.949Z,3.21
2022-12-23T12:21:25.923Z,3.13
2022-12-23T12:22:25.901Z,3.08
2022-12-23T12:23:26.016Z,3.42
2022-12-23T12:24:25.914Z,3.65
2022-12-23T12:25:25.884Z,3.27
2022-12-23T12:26:25.882Z,3.22
2022-12-23T12:27:25.878Z,3.71
2022-12-23T12:28:25.859Z,3.25
2022-12-23T12:29:25.842Z,3.02
2022-12-23T12:30:25.963Z,3.36
2022-12-23T12:31:25.923Z,3.01
2022-12-23T12:32:25.825Z,3.45
2022-12-23T12:33:25.831Z,3.25
2022-12-23T12:34:25.810Z,3.16
2022-12-23T12:35:25.817Z,3.26
2022-12-23T12:36:25.840Z,3.36
2022-12-23T12:37:25.794Z,3.09
2022-12-23T12:38:25.770Z,2.78
2022-12-23T12:39:25.804Z,3.14
2022-12-23T12:40:25.758Z,3.34
2022-12-23T12:41:25.777Z,3.66
2022-12-23T12:42:25.735Z,3.58
2022-12-23T12:43:25.733Z,2.98
2022-12-23T12:44:25.823Z,3.53
2022-12-23T12:45:25.721Z,2.93
2022-12-23T12:46:25.769Z,2.73
2022-12-23T12:47:52.697Z,2.85
2022-12-23T12:48:26.685Z,2.55
2022-12-23T12:49:25.699Z,2.71
2022-12-23T12:50:25.681Z,2.72
2022-12-23T12:51:25.676Z,2.83
2022-12-23T12:52:25.641Z,3.56
2022-12-23T12:53:25.686Z,2.44
2022-12-23T12:54:25.623Z,2.76
2022-12-23T12:55:25.632Z,2.85
2022-12-23T12:56:25.611Z,2.94
2022-12-23T12:57:25.606Z,2.89
2022-12-23T12:58:25.616Z,2.77
2022-12-23T12:59:25.595Z,2.89
2022-12-23T13:00:25.592Z,2.33
2022-12-23T13:01:25.628Z,2.91
2022-12-23T13:02:25.646Z,2.58
2022-12-23T13:03:25.552Z,2.43
2022-12-23T13:04:25.544Z,2.58
2022-12-23T13:05:25.533Z,3.05
2022-12-23T13:06:25.522Z,2.94
2022-12-23T13:07:25.559Z,2.91
2022-12-23T13:08:25.516Z,2.65
2022-12-23T13:09:25.634Z,2.90
2022-12-23T13:10:25.496Z,2.86
2022-12-23T13:11:28.580Z,2.42
2022-12-23T13:12:25.476Z,2.53
2022-12-23T13:13:25.467Z,2.22
2022-12-23T13:14:25.457Z,2.77
2022-12-23T13:15:25.511Z,2.72
2022-12-23T13:16:25.471Z,2.69
2022-12-23T13:17:25.425Z,2.66
2022-12-23T13:18:25.425Z,2.54
2022-12-23T13:19:25.408Z,2.48
2022-12-23T13:20:25.401Z,2.67
2022-12-23T13:21:25.477Z,2.47
2022-12-23T13:22:25.384Z,2.47
2022-12-23T13:24:26.378Z,2.44
2022-12-23T13:25:25.392Z,2.71
2022-12-23T13:26:25.345Z,2.18
2022-12-23T13:27:25.344Z,2.62
2022-12-23T13:28:25.329Z,2.37
2022-12-23T13:29:25.350Z,2.75
2022-12-23T13:30:25.312Z,2.76
2022-12-23T13:31:25.403Z,2.81
2022-12-23T13:32:25.309Z,2.32
2022-12-23T13:33:25.282Z,2.67
2022-12-23T13:34:25.324Z,2.52
2022-12-23T13:35:25.284Z,2.25
2022-12-23T13:36:25.319Z,2.59
2022-12-23T13:37:25.256Z,2.40
2022-12-23T13:38:25.266Z,2.53
2022-12-23T13:39:25.242Z,2.57
2022-12-23T13:40:25.227Z,2.54
2022-12-23T13:41:25.223Z,2.51
2022-12-23T13:42:25.210Z,2.74
2022-12-23T13:43:25.227Z,2.22
2022-12-23T13:44:25.187Z,2.58
2022-12-23T13:45:25.185Z,2.41
2022-12-23T13:46:25.206Z,2.40
2022-12-23T13:47:25.165Z,2.64
2022-12-23T13:48:25.145Z,2.54
2022-12-23T13:49:25.174Z,2.43
2022-12-23T13:50:25.141Z,2.51
2022-12-23T13:51:25.131Z,2.64
2022-12-23T13:52:25.134Z,2.38
2022-12-23T13:53:25.117Z,2.38
2022-12-23T13:54:25.208Z,2.52
2022-12-23T13:55:25.112Z,2.34
2022-12-23T13:56:25.087Z,2.13
2022-12-23T13:57:25.087Z,2.54
2022-12-23T13:58:25.071Z,2.35
2022-12-23T13:59:25.087Z,2.52
2022-12-23T14:00:25.054Z,2.58
2022-12-23T14:01:25.099Z,2.20
2022-12-23T14:02:25.120Z,2.31
2022-12-23T14:03:25.056Z,2.34
2022-12-23T14:04:25.048Z,2.73
2022-12-23T14:05:25.007Z,2.34
2022-12-23T14:06:25.006Z,2.23
2022-12-23T14:07:25.005Z,1.95
2022-12-23T14:08:24.999Z,2.57
2022-12-23T14:09:24.972Z,2.50
2022-12-23T14:10:24.953Z,2.40
2022-12-23T14:11:24.957Z,2.08
2022-12-23T14:12:24.963Z,2.49
2022-12-23T14:13:24.942Z,2.40
2022-12-23T14:14:24.963Z,2.20
2022-12-23T14:15:24.958Z,2.53
2022-12-23T14:16:24.952Z,2.18
2022-12-23T14:17:24.908Z,2.19
2022-12-23T14:18:24.899Z,2.09
2022-12-23T14:19:24.910Z,2.57
2022-12-23T14:20:24.872Z,2.34
2022-12-23T14:21:24.868Z,2.30
2022-12-23T14:22:24.870Z,1.90
2022-12-23T14:23:24.857Z,2.21
2022-12-23T14:24:24.879Z,2.70
2022-12-23T14:25:24.835Z,2.16
2022-12-23T14:26:24.832Z,2.06
2022-12-23T14:27:24.811Z,2.26
2022-12-23T14:28:24.805Z,1.97
2022-12-23T14:29:24.794Z,2.14
2022-12-23T14:30:24.812Z,1.94
2022-12-23T14:31:24.838Z,1.74
2022-12-23T14:32:24.791Z,1.98
2022-12-23T14:33:24.791Z,1.79
2022-12-23T14:34:24.749Z,2.21
2022-12-23T14:35:24.776Z,1.99
2022-12-23T14:36:24.817Z,2.07
2022-12-23T14:37:24.740Z,2.07
2022-12-23T14:38:24.747Z,1.90
2022-12-23T14:39:24.796Z,1.79
2022-12-23T14:40:24.718Z,2.40
2022-12-23T14:41:24.722Z,1.83
2022-12-23T14:42:24.688Z,2.50
2022-12-23T14:43:24.682Z,2.04
2022-12-23T14:44:24.740Z,1.84
2022-12-23T14:45:24.662Z,2.25
2022-12-23T14:46:24.697Z,1.52
2022-12-23T14:47:24.634Z,1.96
2022-12-23T14:48:24.658Z,1.82
2022-12-23T14:49:40.895Z,1.89
2022-12-23T14:50:25.652Z,2.19
2022-12-23T14:51:24.610Z,2.75
2022-12-23T14:52:24.615Z,2.08
2022-12-23T14:53:24.595Z,2.43
2022-12-23T14:54:24.580Z,2.66
2022-12-23T14:55:32.761Z,5.86
2022-12-23T14:56:25.584Z,4.57
2022-12-23T14:57:24.547Z,3.64
2022-12-23T14:58:24.575Z,4.22
2022-12-23T14:59:24.558Z,3.80
2022-12-23T15:00:24.530Z,3.86
2022-12-23T15:01:24.569Z,3.60
2022-12-23T15:02:24.773Z,3.53
2022-12-23T15:03:24.603Z,2.84
2022-12-23T15:04:24.523Z,3.26
2022-12-23T15:05:24.499Z,3.22
2022-12-23T15:06:24.494Z,3.18
2022-12-23T15:07:24.464Z,2.98
2022-12-23T15:08:24.490Z,3.45
2022-12-23T15:09:24.470Z,2.95
2022-12-23T15:10:24.486Z,3.32
2022-12-23T15:11:24.421Z,2.93
2022-12-23T15:12:24.427Z,2.64
2022-12-23T15:13:24.421Z,2.61
2022-12-23T15:14:24.400Z,3.00
2022-12-23T15:15:24.419Z,2.95
2022-12-23T15:16:24.428Z,2.69
2022-12-23T15:17:24.371Z,3.24
2022-12-23T15:18:24.381Z,2.68
2022-12-23T15:19:24.361Z,2.64
2022-12-23T15:20:24.358Z,2.81
2022-12-23T15:21:24.371Z,3.14
2022-12-23T15:22:32.078Z,2.76
2022-12-23T15:23:25.352Z,3.02
2022-12-23T15:24:24.324Z,3.19
2022-12-23T15:25:24.342Z,2.61
2022-12-23T15:26:24.345Z,2.62
2022-12-23T15:27:27.736Z,3.08
2022-12-23T15:28:24.298Z,2.84
2022-12-23T15:29:24.272Z,2.96
2022-12-23T15:30:24.278Z,2.64
2022-12-23T15:31:24.313Z,2.97
2022-12-23T15:32:24.275Z,2.60
2022-12-23T15:34:25.231Z,2.65
2022-12-23T15:35:24.223Z,2.85
2022-12-23T15:36:24.273Z,2.43
2022-12-23T15:37:24.214Z,3.04
2022-12-23T15:38:24.210Z,3.05
2022-12-23T15:39:24.181Z,2.94
2022-12-23T15:40:24.253Z,2.53
2022-12-23T15:41:24.279Z,2.98
2022-12-23T15:42:26.220Z,2.89
2022-12-23T15:43:25.166Z,2.40
2022-12-23T15:44:24.164Z,2.70
2022-12-23T15:45:24.132Z,2.83
2022-12-23T15:46:29.679Z,3.09
2022-12-23T15:47:25.313Z,2.55
2022-12-23T15:48:24.108Z,3.42
2022-12-23T15:49:24.225Z,2.04
2022-12-23T15:50:24.109Z,2.46
2022-12-23T15:51:57.632Z,2.30
2022-12-23T15:52:25.066Z,2.41
2022-12-23T15:53:24.088Z,2.58
2022-12-23T15:54:24.059Z,2.59
2022-12-23T15:55:24.045Z,2.40
2022-12-23T15:56:24.058Z,2.28
2022-12-23T15:57:24.032Z,3.38
2022-12-23T15:58:24.048Z,2.32
2022-12-23T15:59:24.018Z,3.18
2022-12-23T16:00:24.005Z,2.62
2022-12-23T16:01:24.038Z,2.81
2022-12-23T16:02:59.054Z,2.58
2022-12-23T16:03:25.095Z,2.69
2022-12-23T16:04:24.022Z,2.37
2022-12-23T16:05:23.959Z,2.37
2022-12-23T16:06:23.957Z,3.15
2022-12-23T16:07:23.932Z,2.64
2022-12-23T16:08:29.004Z,2.57
2022-12-23T16:09:24.922Z,2.77
2022-12-23T16:10:24.369Z,2.36
2022-12-23T16:11:23.921Z,2.31
2022-12-23T16:12:23.907Z,2.61
2022-12-23T16:13:23.897Z,2.43
2022-12-23T16:14:23.902Z,2.76
2022-12-23T16:15:24.016Z,2.80
2022-12-23T16:16:23.928Z,2.59
2022-12-23T16:17:23.874Z,2.74
2022-12-23T16:18:23.878Z,2.65
2022-12-23T16:19:24.723Z,2.61
2022-12-23T16:20:23.863Z,2.70
2022-12-23T16:21:23.819Z,2.06
2022-12-23T16:22:23.803Z,2.89
2022-12-23T16:23:23.814Z,2.48
2022-12-23T16:24:23.806Z,2.27
2022-12-23T16:25:23.779Z,2.21
2022-12-23T16:26:23.774Z,2.24
2022-12-23T16:27:23.767Z,3.14
2022-12-23T16:28:23.769Z,2.82
2022-12-23T16:29:23.776Z,2.27
2022-12-23T16:30:23.734Z,2.96
2022-12-23T16:31:23.762Z,2.75
2022-12-23T16:32:23.788Z,2.77
2022-12-23T16:33:23.711Z,2.36
2022-12-23T16:34:23.728Z,3.01
2022-12-23T16:35:23.727Z,2.95
2022-12-23T16:36:23.780Z,3.04
2022-12-23T16:37:23.667Z,2.73
2022-12-23T16:38:23.672Z,2.38
2022-12-23T16:39:23.681Z,2.87
2022-12-23T16:40:23.645Z,2.70
2022-12-23T16:41:23.664Z,2.80
2022-12-23T16:42:23.635Z,2.57
2022-12-23T16:43:23.626Z,2.83
2022-12-23T16:44:23.625Z,2.60
2022-12-23T16:45:23.597Z,2.20
2022-12-23T16:46:23.759Z,2.60
2022-12-23T16:47:23.610Z,2.48
2022-12-23T16:48:23.674Z,2.40
2022-12-23T16:49:27.977Z,2.31
2022-12-23T16:50:24.570Z,2.20
2022-12-23T16:51:23.572Z,2.02
2022-12-23T16:52:23.540Z,2.07
2022-12-23T16:53:23.533Z,2.05
2022-12-23T16:54:23.547Z,2.46
2022-12-23T16:55:23.513Z,2.80
2022-12-23T16:56:23.509Z,2.67
2022-12-23T16:57:23.534Z,3.06
2022-12-23T16:58:23.491Z,2.55
2022-12-23T16:59:23.512Z,3.47
2022-12-23T17:00:23.466Z,2.89
2022-12-23T17:01:23.594Z,2.46
2022-12-23T17:02:23.546Z,2.39
2022-12-23T17:03:23.447Z,2.58
2022-12-23T17:04:23.439Z,2.63
2022-12-23T17:05:23.431Z,2.43
2022-12-23T17:06:23.473Z,2.29
2022-12-23T17:07:23.403Z,2.51
2022-12-23T17:08:23.424Z,2.66
2022-12-23T17:09:23.393Z,2.58
2022-12-23T17:10:23.398Z,2.44
2022-12-23T17:11:24.370Z,2.10
2022-12-23T17:12:23.367Z,2.48
2022-12-23T17:13:23.379Z,2.63
2022-12-23T17:14:23.363Z,2.07
2022-12-23T17:15:23.339Z,2.73
2022-12-23T17:16:23.385Z,2.53
2022-12-23T17:17:23.319Z,2.92
2022-12-23T17:18:23.321Z,2.58
2022-12-23T17:19:28.494Z,2.45
2022-12-23T17:20:24.297Z,2.31
2022-12-23T17:21:23.328Z,2.55
2022-12-23T17:22:23.282Z,2.52
2022-12-23T17:23:23.273Z,2.01
2022-12-23T17:24:23.268Z,2.46
2022-12-23T17:25:26.445Z,3.47
2022-12-23T17:26:23.276Z,3.13
2022-12-23T17:27:23.266Z,3.87
2022-12-23T17:28:23.239Z,6.07
2022-12-23T17:29:23.211Z,22.61
2022-12-23T17:30:23.203Z,25.10
2022-12-23T17:31:27.008Z,25.99
2022-12-23T17:32:23.281Z,29.00
2022-12-23T17:33:23.193Z,22.43
2022-12-23T17:34:23.226Z,18.90
2022-12-23T17:35:23.164Z,16.06
2022-12-23T17:36:23.203Z,15.35
2022-12-23T17:37:23.160Z,17.30
2022-12-23T17:38:23.143Z,12.44
2022-12-23T17:39:23.147Z,15.35
2022-12-23T17:40:23.148Z,13.83
2022-12-23T17:41:23.125Z,12.57
2022-12-23T17:42:25.845Z,14.13
2022-12-23T17:43:23.128Z,14.20
2022-12-23T17:44:23.113Z,14.01
2022-12-23T17:45:23.085Z,11.96
2022-12-23T17:46:23.120Z,10.65
2022-12-23T17:47:23.054Z,10.83
2022-12-23T17:48:27.983Z,10.32
2022-12-23T17:49:24.074Z,9.80
2022-12-23T17:50:23.039Z,10.02
2022-12-23T17:51:23.018Z,9.46
2022-12-23T17:52:23.013Z,9.89
2022-12-23T17:53:23.013Z,9.40
2022-12-23T17:54:23.133Z,9.90
2022-12-23T17:55:22.979Z,10.70
2022-12-23T17:56:22.991Z,9.12
2022-12-23T17:57:22.984Z,9.03
2022-12-23T17:58:22.978Z,8.48
2022-12-23T17:59:23.007Z,8.70
2022-12-23T18:00:31.924Z,8.76
2022-12-23T18:01:24.056Z,8.29
2022-12-23T18:02:23.003Z,8.53
2022-12-23T18:03:22.922Z,8.63
2022-12-23T18:04:22.915Z,8.07
2022-12-23T18:05:22.927Z,8.76
2022-12-23T18:06:22.895Z,8.30
2022-12-23T18:07:22.892Z,8.13
2022-12-23T18:08:22.883Z,8.73
2022-12-23T18:09:22.864Z,8.35
2022-12-23T18:10:22.883Z,6.93
2022-12-23T18:11:22.885Z,7.37
2022-12-23T18:12:25.063Z,7.18
2022-12-23T18:13:22.947Z,7.30
2022-12-23T18:14:22.933Z,7.22
2022-12-23T18:15:22.921Z,6.69
2022-12-23T18:16:22.994Z,6.48
2022-12-23T18:17:22.902Z,6.35
2022-12-23T18:18:30.942Z,5.20
2022-12-23T18:19:23.888Z,6.22
2022-12-23T18:20:22.909Z,6.16
2022-12-23T18:21:22.865Z,5.95
2022-12-23T18:22:22.895Z,6.50
2022-12-23T18:23:22.899Z,5.12
2022-12-23T18:24:22.866Z,5.97
2022-12-23T18:25:22.841Z,5.81
2022-12-23T18:26:22.846Z,5.13
2022-12-23T18:28:16.177Z,6.00
2022-12-23T18:29:16.157Z,6.51
2022-12-23T18:30:16.169Z,4.82
2022-12-23T18:31:16.138Z,5.75
2022-12-23T18:32:16.100Z,5.40
2022-12-23T18:33:16.119Z,5.85
2022-12-23T18:34:16.111Z,5.05
2022-12-23T18:35:16.080Z,6.16
2022-12-23T18:36:16.107Z,5.70
2022-12-23T18:37:16.061Z,6.54
2022-12-23T18:38:16.057Z,5.30
2022-12-23T18:39:16.109Z,5.50
2022-12-23T18:40:16.049Z,5.56
2022-12-23T18:41:16.018Z,6.09
2022-12-23T18:42:16.034Z,6.55
2022-12-23T18:43:16.000Z,5.83
2022-12-23T18:44:16.022Z,5.60
2022-12-23T18:45:16.005Z,5.39
2022-12-23T18:46:16.025Z,4.52
2022-12-23T18:47:16.009Z,6.88
2022-12-23T18:48:15.962Z,5.60
2022-12-23T18:49:15.972Z,5.57
2022-12-23T18:50:15.945Z,5.78
2022-12-23T18:51:15.941Z,5.45
2022-12-23T18:52:15.953Z,5.12
2022-12-23T18:53:23.113Z,5.21
2022-12-23T18:54:16.942Z,5.60
2022-12-23T18:55:15.899Z,5.40
2022-12-23T18:56:15.898Z,5.55
2022-12-23T18:57:15.881Z,4.26
2022-12-23T18:58:15.897Z,4.68
2022-12-23T18:59:15.859Z,4.21
2022-12-23T19:00:15.875Z,4.20
2022-12-23T19:01:15.884Z,4.11
2022-12-23T19:02:15.871Z,4.19
2022-12-23T19:03:15.851Z,4.55
2022-12-23T19:04:15.847Z,3.92
2022-12-23T19:05:15.823Z,3.91
2022-12-23T19:06:15.811Z,4.19
2022-12-23T19:07:15.822Z,4.06
2022-12-23T19:08:20.319Z,3.97
2022-12-23T19:09:16.803Z,4.44
2022-12-23T19:10:15.782Z,4.21
2022-12-23T19:11:15.760Z,3.99
2022-12-23T19:12:15.747Z,4.33
2022-12-23T19:13:15.769Z,4.47
2022-12-23T19:14:15.738Z,4.16
2022-12-23T19:15:15.757Z,3.93
2022-12-23T19:16:15.870Z,3.86
2022-12-23T19:17:15.727Z,4.37
2022-12-23T19:18:15.691Z,2.92
2022-12-23T19:19:15.691Z,4.26
2022-12-23T19:20:15.692Z,3.97
2022-12-23T19:21:15.685Z,4.08
2022-12-23T19:22:15.657Z,4.32
2022-12-23T19:23:15.675Z,3.68
2022-12-23T19:24:15.660Z,4.01
2022-12-23T19:25:15.641Z,3.16
2022-12-23T19:26:15.646Z,3.81
2022-12-23T19:27:15.618Z,4.07
2022-12-23T19:28:15.604Z,3.83
2022-12-23T19:29:15.617Z,3.57
2022-12-23T19:30:15.579Z,3.43
2022-12-23T19:31:15.749Z,3.60
2022-12-23T19:32:15.582Z,3.56
2022-12-23T19:33:15.584Z,3.66
2022-12-23T19:34:16.114Z,3.12
2022-12-23T19:35:15.554Z,3.51
2022-12-23T19:36:15.605Z,3.76
2022-12-23T19:37:15.526Z,4.14
2022-12-23T19:38:15.523Z,2.83
2022-12-23T19:39:15.497Z,3.67
2022-12-23T19:40:15.508Z,3.15
2022-12-23T19:41:15.486Z,3.07
2022-12-23T19:42:15.503Z,3.79
2022-12-23T19:43:15.478Z,3.96
2022-12-23T19:44:15.466Z,3.67
2022-12-23T19:45:15.455Z,3.85
2022-12-23T19:46:15.506Z,3.42
2022-12-23T19:47:15.438Z,3.53
2022-12-23T19:48:15.424Z,3.25
2022-12-23T19:49:19.822Z,3.54
2022-12-23T19:50:16.397Z,3.34
2022-12-23T19:51:15.423Z,3.30
2022-12-23T19:52:15.395Z,3.87
2022-12-23T19:53:15.375Z,3.50
2022-12-23T19:54:15.424Z,3.56
2022-12-23T19:55:15.367Z,3.17
2022-12-23T19:56:15.371Z,3.68
2022-12-23T19:57:15.377Z,4.13
2022-12-23T19:58:15.328Z,3.41
2022-12-23T19:59:15.327Z,2.86
2022-12-23T20:00:15.316Z,3.47
2022-12-23T20:01:15.387Z,3.28
2022-12-23T20:02:15.470Z,3.21
2022-12-23T20:03:15.428Z,3.13
2022-12-23T20:04:15.282Z,3.07
2022-12-23T20:05:15.302Z,3.03
2022-12-23T20:06:15.325Z,3.06
2022-12-23T20:07:15.259Z,2.97
2022-12-23T20:08:15.268Z,3.19
2022-12-23T20:09:15.295Z,4.20
2022-12-23T20:10:15.277Z,3.43
2022-12-23T20:11:15.268Z,2.48
2022-12-23T20:12:15.252Z,3.15
2022-12-23T20:13:15.221Z,3.29
2022-12-23T20:14:15.219Z,3.31
2022-12-23T20:15:15.230Z,2.83
2022-12-23T20:16:15.257Z,2.63
2022-12-23T20:17:15.230Z,2.53
2022-12-23T20:18:15.158Z,2.65
2022-12-23T20:19:15.152Z,3.00
2022-12-23T20:20:15.154Z,3.29
2022-12-23T20:21:15.127Z,3.02
2022-12-23T20:22:15.154Z,2.47
2022-12-23T20:23:15.155Z,2.92
2022-12-23T20:24:15.106Z,3.09
2022-12-23T20:25:15.101Z,3.21
2022-12-23T20:26:15.079Z,2.70
2022-12-23T20:27:16.292Z,2.50
2022-12-23T20:28:15.094Z,2.79
2022-12-23T20:29:15.232Z,2.76
2022-12-23T20:30:15.080Z,2.58
2022-12-23T20:31:15.074Z,3.16
2022-12-23T20:32:15.057Z,2.29
2022-12-23T20:33:15.119Z,2.76
2022-12-23T20:34:15.015Z,2.78
2022-12-23T20:35:15.003Z,2.40
2022-12-23T20:36:15.020Z,2.64
2022-12-23T20:37:15.003Z,2.16
2022-12-23T20:38:15.009Z,2.79
2022-12-23T20:39:15.005Z,2.46
2022-12-23T20:40:14.995Z,2.73
2022-12-23T20:41:14.960Z,2.46
2022-12-23T20:42:14.989Z,2.43
2022-12-23T20:43:15.516Z,2.51
2022-12-23T20:45:15.948Z,2.45
2022-12-23T20:46:14.947Z,2.95
2022-12-23T20:47:14.931Z,2.32
2022-12-23T20:48:14.887Z,2.29
2022-12-23T20:49:14.872Z,2.42
2022-12-23T20:50:14.872Z,2.51
2022-12-23T20:51:14.864Z,2.92
2022-12-23T20:52:14.854Z,2.68
2022-12-23T20:53:14.872Z,2.86
2022-12-23T20:54:14.871Z,2.80
2022-12-23T20:55:14.816Z,2.44
2022-12-23T20:56:14.823Z,2.80
2022-12-23T20:57:14.816Z,2.62
2022-12-23T20:58:14.791Z,2.56
2022-12-23T20:59:14.825Z,2.09
2022-12-23T21:00:14.820Z,2.36
2022-12-23T21:01:14.840Z,2.32
2022-12-23T21:02:14.832Z,2.34
2022-12-23T21:03:14.794Z,2.38
2022-12-23T21:04:14.757Z,2.27
2022-12-23T21:05:14.765Z,2.25
2022-12-23T21:06:14.722Z,2.31
2022-12-23T21:07:14.715Z,2.30
2022-12-23T21:08:14.791Z,2.61
2022-12-23T21:09:14.761Z,2.88
2022-12-23T21:10:14.690Z,2.45
2022-12-23T21:11:14.728Z,2.17
2022-12-23T21:12:14.672Z,2.44
2022-12-23T21:13:14.659Z,2.23
2022-12-23T21:14:14.655Z,2.26
2022-12-23T21:15:14.644Z,2.04
2022-12-23T21:16:14.719Z,2.37
2022-12-23T21:17:14.641Z,2.15
2022-12-23T21:18:14.616Z,2.59
2022-12-23T21:19:14.649Z,1.90
2022-12-23T21:20:14.619Z,2.28
2022-12-23T21:21:14.592Z,2.25
2022-12-23T21:22:14.631Z,2.33
2022-12-23T21:23:14.604Z,2.37
2022-12-23T21:24:14.571Z,1.80
2022-12-23T21:25:14.576Z,2.44
2022-12-23T21:26:14.550Z,2.25
2022-12-23T21:27:14.536Z,1.90
2022-12-23T21:28:14.530Z,2.15
2022-12-23T21:29:14.525Z,2.17
2022-12-23T21:30:14.508Z,2.19
2022-12-23T21:31:14.567Z,1.76
2022-12-23T21:32:14.494Z,2.08
2022-12-23T21:33:14.492Z,2.19
2022-12-23T21:34:14.490Z,2.18
2022-12-23T21:35:14.474Z,1.67
2022-12-23T21:36:19.722Z,1.54
2022-12-23T21:37:15.475Z,1.86
2022-12-23T21:38:14.426Z,1.59
2022-12-23T21:39:14.422Z,2.09
2022-12-23T21:40:14.410Z,2.09
2022-12-23T21:41:14.421Z,2.15
2022-12-23T21:42:14.429Z,1.75
2022-12-23T21:43:14.387Z,2.13
2022-12-23T21:44:14.390Z,1.93
2022-12-23T21:45:14.421Z,1.56
2022-12-23T21:46:14.414Z,1.92
2022-12-23T21:47:14.413Z,2.20
2022-12-23T21:48:14.350Z,1.94
2022-12-23T21:49:14.337Z,1.75
2022-12-23T21:50:14.333Z,1.82
2022-12-23T21:51:14.341Z,1.54
2022-12-23T21:52:14.334Z,1.76
2022-12-23T21:53:14.311Z,1.80
2022-12-23T21:54:14.305Z,1.95
2022-12-23T21:55:14.350Z,1.82
2022-12-23T21:56:14.285Z,2.03
2022-12-23T21:57:14.266Z,1.74
2022-12-23T21:58:14.276Z,1.66
2022-12-23T21:59:14.283Z,1.88
2022-12-23T22:00:14.269Z,1.60
2022-12-23T22:01:14.331Z,1.41
2022-12-23T22:02:14.303Z,1.89
2022-12-23T22:03:14.216Z,1.54
2022-12-23T22:04:14.277Z,1.93
2022-12-23T22:05:14.214Z,1.51
2022-12-23T22:06:14.190Z,1.32
2022-12-23T22:07:14.180Z,1.97
2022-12-23T22:08:14.181Z,1.86
2022-12-23T22:09:14.223Z,1.51
2022-12-23T22:10:14.158Z,1.54
2022-12-23T22:11:14.144Z,2.00
2022-12-23T22:12:14.156Z,1.73
2022-12-23T22:13:14.126Z,1.40
2022-12-23T22:14:14.125Z,1.79
2022-12-23T22:15:14.112Z,1.68
2022-12-23T22:16:14.148Z,1.81
2022-12-23T22:17:14.168Z,1.84
2022-12-23T22:18:14.075Z,1.38
2022-12-23T22:19:14.070Z,1.83
2022-12-23T22:20:14.061Z,1.80
2022-12-23T22:21:14.083Z,1.42
2022-12-23T22:22:14.043Z,1.53
2022-12-23T22:23:14.032Z,1.76
2022-12-23T22:24:14.024Z,1.60
2022-12-23T22:25:14.024Z,1.69
2022-12-23T22:26:17.450Z,2.03
2022-12-23T22:27:15.022Z,1.59
2022-12-23T22:28:13.995Z,1.64
2022-12-23T22:29:13.977Z,1.64
2022-12-23T22:30:13.977Z,1.89
2022-12-23T22:31:14.011Z,1.50
2022-12-23T22:32:13.967Z,1.60
2022-12-23T22:33:13.942Z,1.86
2022-12-23T22:34:13.966Z,1.61
2022-12-23T22:35:13.961Z,1.59
2022-12-23T22:36:13.941Z,1.79
2022-12-23T22:37:13.902Z,2.01
2022-12-23T22:38:13.901Z,2.10
2022-12-23T22:39:19.485Z,2.00
2022-12-23T22:40:14.887Z,2.34
2022-12-23T22:41:13.865Z,1.69
2022-12-23T22:42:13.886Z,1.83
2022-12-23T22:43:13.851Z,1.80
2022-12-23T22:44:13.843Z,1.56
2022-12-23T22:45:13.838Z,1.90
2022-12-23T22:46:13.945Z,8.17
2022-12-23T22:47:13.842Z,4.59
2022-12-23T22:48:13.839Z,3.82
2022-12-23T22:49:13.845Z,2.66
2022-12-23T22:50:13.792Z,4.39
2022-12-23T22:51:13.800Z,2.67
2022-12-23T22:52:13.798Z,3.40
2022-12-23T22:53:13.805Z,3.44
2022-12-23T22:54:13.773Z,3.43
2022-12-23T22:55:13.798Z,3.50
2022-12-23T22:56:13.764Z,3.62
2022-12-23T22:57:13.754Z,3.20
2022-12-23T22:58:13.733Z,4.01
2022-12-23T22:59:13.703Z,3.46
2022-12-23T23:00:13.752Z,2.95
2022-12-23T23:01:13.693Z,2.99
2022-12-23T23:02:13.728Z,3.08
2022-12-23T23:03:13.681Z,3.62
2022-12-23T23:04:13.666Z,2.80
2022-12-23T23:05:13.759Z,2.83
2022-12-23T23:06:13.654Z,2.76
2022-12-23T23:07:13.640Z,3.90
2022-12-23T23:08:13.634Z,3.29
2022-12-23T23:09:13.622Z,3.44
2022-12-23T23:10:13.653Z,3.08
2022-12-23T23:11:13.600Z,3.71
2022-12-23T23:12:13.596Z,3.56
2022-12-23T23:13:13.607Z,3.01
2022-12-23T23:14:13.581Z,2.82
2022-12-23T23:15:13.600Z,2.52
2022-12-23T23:16:13.644Z,2.83
2022-12-23T23:17:13.541Z,3.24
2022-12-23T23:18:13.572Z,2.81
2022-12-23T23:19:13.546Z,2.56
2022-12-23T23:20:13.541Z,3.08
2022-12-23T23:21:13.516Z,2.82
2022-12-23T23:22:13.499Z,3.16
2022-12-23T23:23:13.520Z,3.82
2022-12-23T23:24:13.511Z,2.96
2022-12-23T23:25:13.501Z,2.74
2022-12-23T23:26:13.465Z,2.82
2022-12-23T23:27:13.477Z,3.04
2022-12-23T23:28:13.454Z,3.51
2022-12-23T23:29:13.447Z,3.35
2022-12-23T23:30:13.440Z,3.32
2022-12-23T23:31:43.841Z,2.86
2022-12-23T23:32:14.594Z,2.80
2022-12-23T23:33:13.407Z,2.91
2022-12-23T23:34:13.401Z,2.92
2022-12-23T23:35:13.412Z,2.71
2022-12-23T23:36:13.396Z,2.88
2022-12-23T23:37:13.411Z,2.94
2022-12-23T23:38:13.366Z,2.73
2022-12-23T23:39:13.348Z,2.76
2022-12-23T23:40:13.347Z,3.17
2022-12-23T23:41:16.164Z,2.80
2022-12-23T23:42:14.360Z,2.71
2022-12-23T23:43:13.332Z,2.75
2022-12-23T23:44:13.307Z,3.35
2022-12-23T23:45:13.322Z,2.87
2022-12-23T23:46:13.317Z,2.34
2022-12-23T23:47:13.281Z,2.60
2022-12-23T23:48:13.287Z,2.56
2022-12-23T23:49:13.278Z,2.01
2022-12-23T23:50:13.253Z,2.91
2022-12-23T23:51:13.255Z,2.65
2022-12-23T23:52:13.234Z,2.79
2022-12-23T23:53:13.227Z,2.98
2022-12-23T23:54:13.256Z,1.88
2022-12-23T23:55:13.207Z,2.66
2022-12-23T23:56:13.214Z,2.63
2022-12-23T23:57:13.219Z,2.49
2022-12-23T23:58:13.189Z,2.55
2022-12-23T23:59:13.189Z,2.64
